Time;durP1;ratioP1;P1;durP2;ratioP2;P2;SDS_P1;SDS_P2;PMS_P1;PMS_P2;Temp;Humidity;BMP_temperature;BMP_pressure;BME280_temperature;BME280_humidity;BME280_pressure;Samples;Min_cycle;Max_cycle;Signal;HPM_P1;HPM_P2
2022/11/21 00:01:31;;;;;;;;;;;8.70;99.90;;;;;;6098213;23;19902;-75
2022/11/21 00:03:56;;;;;;;;;;;8.40;99.90;;;;;;6098452;23;19901;-75
2022/11/21 00:06:22;;;;;;;;;;;8.20;99.90;;;;;;6098178;23;19901;-75
2022/11/21 00:08:48;;;;;;;;;;;8.20;99.90;;;;;;6098179;23;19901;-76
2022/11/21 00:11:13;;;;;;;;;;;8.40;99.90;;;;;;6098737;23;19909;-77
2022/11/21 00:13:39;;;;;;;;;;;8.70;99.90;;;;;;6098139;23;19908;-75
2022/11/21 00:16:06;;;;;;;;;;;8.70;99.90;;;;;;6098530;23;19901;-76
2022/11/21 00:18:33;;;;;;;;;;;8.60;99.90;;;;;;6097955;23;19905;-76
2022/11/21 00:21:02;;;;;;;;;;;8.70;99.90;;;;;;6098006;23;19901;-75
2022/11/21 00:23:28;;;;;;;;;;;8.70;99.90;;;;;;6097955;23;19901;-76
2022/11/21 00:25:53;;;;;;;;;;;8.70;99.90;;;;;;6098509;23;19908;-76
2022/11/21 00:28:19;;;;;;;;;;;8.80;99.90;;;;;;6097908;23;20214;-76
2022/11/21 00:30:44;;;;;;;;;;;8.90;99.90;;;;;;6098049;23;19980;-75
2022/11/21 00:33:10;;;;;;;;;;;8.80;99.90;;;;;;6097098;23;19917;-75
2022/11/21 00:35:35;;;;;;;;;;;8.80;99.90;;;;;;6098435;23;20336;-76
2022/11/21 00:38:01;;;;;;;;;;;8.80;99.90;;;;;;6097815;23;19905;-77
2022/11/21 00:40:26;;;;;;;;;;;9.00;99.90;;;;;;6097633;23;19932;-76
2022/11/21 00:42:52;;;;;;;;;;;9.00;99.90;;;;;;6097923;23;20388;-76
2022/11/21 00:45:18;;;;;;;;;;;9.10;99.90;;;;;;6097608;23;19902;-76
2022/11/21 00:47:43;;;;;;;;;;;9.20;99.90;;;;;;6097863;23;19901;-76
2022/11/21 00:50:09;;;;;;;;;;;9.20;99.90;;;;;;6097798;23;19923;-75
2022/11/21 00:52:35;;;;;;;;;;;9.30;99.90;;;;;;6097935;23;19952;-77
2022/11/21 00:55:01;;;;;;;;;;;9.30;99.90;;;;;;6097849;23;20324;-76
2022/11/21 00:57:26;;;;;;;;;;;9.30;99.90;;;;;;6098050;23;19912;-76
2022/11/21 00:59:52;;;;;;;;;;;9.30;99.90;;;;;;6097946;23;19901;-77
2022/11/21 01:02:17;;;;;;;;;;;9.20;99.90;;;;;;6098019;23;19949;-75
2022/11/21 01:04:43;;;;;;;;;;;9.20;99.90;;;;;;6097844;23;19901;-78
2022/11/21 01:07:09;;;;;;;;;;;9.20;99.90;;;;;;6097706;23;20316;-77
2022/11/21 01:09:34;;;;;;;;;;;9.20;99.90;;;;;;6097964;23;19905;-76
2022/11/21 01:12:00;;;;;;;;;;;9.20;99.90;;;;;;6098325;23;19901;-76
2022/11/21 01:14:25;;;;;;;;;;;9.10;99.90;;;;;;6097689;23;19901;-77
2022/11/21 01:16:51;;;;;;;;;;;9.10;99.90;;;;;;6097687;23;20284;-77
2022/11/21 01:19:16;;;;;;;;;;;9.10;99.90;;;;;;6097643;23;19980;-76
2022/11/21 01:21:42;;;;;;;;;;;9.10;99.90;;;;;;6097657;23;19909;-76
2022/11/21 01:24:09;;;;;;;;;;;9.10;99.90;;;;;;6097705;23;19936;-77
2022/11/21 01:26:36;;;;;;;;;;;9.20;99.90;;;;;;6097572;23;19909;-75
2022/11/21 01:29:03;;;;;;;;;;;9.20;99.90;;;;;;6097512;23;19901;-76
2022/11/21 01:31:29;;;;;;;;;;;9.20;99.90;;;;;;6097421;23;19913;-76
2022/11/21 01:33:56;;;;;;;;;;;9.20;99.90;;;;;;6097747;23;19910;-77
2022/11/21 01:36:23;;;;;;;;;;;9.10;99.90;;;;;;6097581;23;19980;-75
2022/11/21 01:38:49;;;;;;;;;;;9.00;99.90;;;;;;6097449;23;19905;-75
2022/11/21 01:41:17;;;;;;;;;;;9.00;99.90;;;;;;6097549;23;19963;-76
2022/11/21 01:43:43;;;;;;;;;;;9.00;99.90;;;;;;6097893;23;19905;-76
2022/11/21 01:46:13;;;;;;;;;;;8.90;99.90;;;;;;6097557;23;19909;-75
2022/11/21 01:48:47;;;;;;;;;;;8.90;99.90;;;;;;6097507;23;19908;-77
2022/11/21 01:51:39;;;;;;;;;;;8.80;99.90;;;;;;6097553;23;19912;-75
2022/11/21 01:54:34;;;;;;;;;;;8.80;99.90;;;;;;6063113;23;19953;-77
2022/11/21 01:57:11;;;;;;;;;;;8.70;99.90;;;;;;6085155;23;19927;-75
2022/11/21 02:00:12;;;;;;;;;;;8.70;1.00;;;;;;6099948;23;19929;-77
2022/11/21 02:02:40;;;;;;;;;;;8.80;1.00;;;;;;6039664;23;19902;-75
2022/11/21 02:05:07;;;;;;;;;;;8.80;1.00;;;;;;6087759;23;19928;-76
2022/11/21 02:07:34;;;;;;;;;;;8.90;1.00;;;;;;6099399;23;19912;-75
2022/11/21 02:10:00;;;;;;;;;;;8.90;1.00;;;;;;6099393;23;19908;-76
2022/11/21 02:12:41;;;;;;;;;;;8.80;1.00;;;;;;6100160;23;19954;-77
2022/11/21 02:15:07;;;;;;;;;;;8.90;1.00;;;;;;6097722;23;20317;-76
2022/11/21 02:17:33;;;;;;;;;;;8.80;1.00;;;;;;6098746;23;19909;-77
2022/11/21 02:20:00;;;;;;;;;;;8.80;1.00;;;;;;6099269;23;19902;-76
2022/11/21 02:22:44;;;;;;;;;;;8.80;1.00;;;;;;6099305;23;19980;-77
2022/11/21 02:25:14;;;;;;;;;;;8.80;1.00;;;;;;6097725;23;19949;-76
2022/11/21 02:27:40;;;;;;;;;;;8.80;1.00;;;;;;6099230;23;20312;-76
2022/11/21 02:30:07;;;;;;;;;;;8.80;1.00;;;;;;6099191;23;19909;-77
2022/11/21 02:32:38;;;;;;;;;;;8.70;1.00;;;;;;6098857;23;19924;-76
2022/11/21 02:35:03;;;;;;;;;;;8.80;1.00;;;;;;6121924;23;19950;-76
2022/11/21 02:37:30;;;;;;;;;;;8.80;1.00;;;;;;6099131;23;20284;-75
2022/11/21 02:39:57;;;;;;;;;;;8.80;1.00;;;;;;6097512;23;19902;-75
2022/11/21 02:42:33;;;;;;;;;;;8.80;1.00;;;;;;6099028;23;19980;-76
2022/11/21 02:45:11;;;;;;;;;;;8.80;1.00;;;;;;6099001;23;19953;-75
2022/11/21 02:47:37;;;;;;;;;;;8.80;1.00;;;;;;6099251;23;19902;-75
2022/11/21 02:50:10;;;;;;;;;;;8.90;1.00;;;;;;6097474;23;19905;-76
2022/11/21 02:52:35;;;;;;;;;;;8.90;1.00;;;;;;6099003;23;19901;-76
2022/11/21 02:55:01;;;;;;;;;;;8.90;1.00;;;;;;6098910;23;19976;-76
2022/11/21 02:57:26;;;;;;;;;;;8.90;1.00;;;;;;6099116;23;20243;-76
2022/11/21 02:59:52;;;;;;;;;;;8.80;1.00;;;;;;6099304;23;19902;-77
2022/11/21 03:02:17;;;;;;;;;;;8.80;1.00;;;;;;6099160;23;19986;-76
2022/11/21 03:04:44;;;;;;;;;;;8.80;1.00;;;;;;6098848;23;19906;-76
2022/11/21 03:07:09;;;;;;;;;;;8.80;1.00;;;;;;6098886;23;20240;-77
2022/11/21 03:09:35;;;;;;;;;;;8.80;1.00;;;;;;6098865;23;19909;-76
2022/11/21 03:12:04;;;;;;;;;;;8.90;1.00;;;;;;6099325;23;19952;-77
2022/11/21 03:14:29;;;;;;;;;;;8.90;1.00;;;;;;6098689;23;20236;-76
2022/11/21 03:16:55;;;;;;;;;;;8.90;1.00;;;;;;6098664;23;19952;-77
2022/11/21 03:19:21;;;;;;;;;;;8.90;1.00;;;;;;6098702;23;19968;-77
2022/11/21 03:21:46;;;;;;;;;;;8.80;1.00;;;;;;6098811;23;19908;-76
2022/11/21 03:24:12;;;;;;;;;;;8.80;1.00;;;;;;6098729;23;19901;-77
2022/11/21 03:26:37;;;;;;;;;;;8.90;1.00;;;;;;6098579;23;20324;-77
2022/11/21 03:29:03;;;;;;;;;;;8.90;1.00;;;;;;6098554;23;19912;-76
2022/11/21 03:31:28;;;;;;;;;;;8.90;1.00;;;;;;6098539;23;20281;-76
2022/11/21 03:33:54;;;;;;;;;;;8.90;1.00;;;;;;6098520;23;19901;-76
2022/11/21 03:36:20;;;;;;;;;;;9.00;1.00;;;;;;6098500;23;20225;-77
2022/11/21 03:38:45;;;;;;;;;;;9.00;1.00;;;;;;6098408;23;20371;-77
2022/11/21 03:41:32;;;;;;;;;;;9.00;1.00;;;;;;6098439;23;19901;-76
2022/11/21 03:44:01;;;;;;;;;;;9.00;1.00;;;;;;6098215;23;19905;-78
2022/11/21 03:46:27;;;;;;;;;;;8.90;1.00;;;;;;6096824;23;19902;-76
2022/11/21 03:48:52;;;;;;;;;;;8.90;1.00;;;;;;6098399;23;19936;-76
2022/11/21 03:51:18;;;;;;;;;;;9.00;1.00;;;;;;6098371;23;19901;-76
2022/11/21 03:53:44;;;;;;;;;;;8.90;1.00;;;;;;6098810;23;20328;-76
2022/11/21 03:56:10;;;;;;;;;;;9.00;1.00;;;;;;6098477;23;19934;-75
2022/11/21 03:58:36;;;;;;;;;;;8.90;1.00;;;;;;6098253;23;19905;-77
2022/11/21 04:01:01;;;;;;;;;;;8.90;1.00;;;;;;6096667;23;19901;-76
2022/11/21 04:03:27;;;;;;;;;;;9.00;1.00;;;;;;6098430;23;19924;-76
2022/11/21 04:05:52;;;;;;;;;;;9.00;1.00;;;;;;6098242;23;19905;-75
2022/11/21 04:08:18;;;;;;;;;;;9.00;1.00;;;;;;6098210;23;19908;-77
2022/11/21 04:10:47;;;;;;;;;;;9.00;1.00;;;;;;6098510;23;20271;-75
2022/11/21 04:13:13;;;;;;;;;;;9.00;1.00;;;;;;6098949;23;20350;-77
2022/11/21 04:15:42;;;;;;;;;;;9.00;1.00;;;;;;6098119;23;19901;-76
2022/11/21 04:18:08;;;;;;;;;;;9.00;1.00;;;;;;6097998;23;19937;-77
2022/11/21 04:20:33;;;;;;;;;;;9.10;1.00;;;;;;6098355;23;20335;-76
2022/11/21 04:22:59;;;;;;;;;;;9.10;1.00;;;;;;6097694;23;19901;-76
2022/11/21 04:25:24;;;;;;;;;;;9.10;1.00;;;;;;6098005;23;19901;-75
2022/11/21 04:27:50;;;;;;;;;;;9.10;1.00;;;;;;6098072;23;19901;-77
2022/11/21 04:30:16;;;;;;;;;;;9.10;1.00;;;;;;6097880;23;20244;-77
2022/11/21 04:32:42;;;;;;;;;;;9.10;1.00;;;;;;6097916;23;19913;-76
2022/11/21 04:35:08;;;;;;;;;;;9.10;1.00;;;;;;6097925;23;19902;-76
2022/11/21 04:37:34;;;;;;;;;;;9.20;1.00;;;;;;6096227;23;19979;-76
2022/11/21 04:39:59;;;;;;;;;;;9.20;1.00;;;;;;6097896;23;19901;-77
2022/11/21 04:42:25;;;;;;;;;;;9.20;1.00;;;;;;6098157;23;19924;-75
2022/11/21 04:44:50;;;;;;;;;;;9.20;1.00;;;;;;6097889;23;19956;-76
2022/11/21 04:47:16;;;;;;;;;;;9.30;1.00;;;;;;6098003;23;20298;-77
2022/11/21 04:49:41;;;;;;;;;;;9.30;1.00;;;;;;6097837;23;19908;-76
2022/11/21 04:52:07;;;;;;;;;;;9.40;1.00;;;;;;6097886;23;20028;-77
2022/11/21 04:54:33;;;;;;;;;;;9.40;1.00;;;;;;6098345;23;19905;-77
2022/11/21 04:56:58;;;;;;;;;;;9.40;1.00;;;;;;6097670;23;20388;-77
2022/11/21 04:59:24;;;;;;;;;;;9.50;1.00;;;;;;6097781;23;19976;-76
2022/11/21 05:01:49;;;;;;;;;;;9.50;1.00;;;;;;6097803;23;20284;-77
2022/11/21 05:04:15;;;;;;;;;;;9.50;1.00;;;;;;6097738;23;19952;-77
2022/11/21 05:06:40;;;;;;;;;;;9.50;1.00;;;;;;6098197;23;20316;-76
2022/11/21 05:09:06;;;;;;;;;;;9.60;1.00;;;;;;6097653;23;19901;-75
2022/11/21 05:14:16;;;;;;;;;;;9.60;1.00;;;;;;6098001;23;19907;-76
2022/11/21 05:16:41;;;;;;;;;;;9.70;1.00;;;;;;6097655;23;19979;-76
2022/11/21 05:19:08;;;;;;;;;;;9.70;1.00;;;;;;6097646;23;19929;-75
2022/11/21 05:21:33;;;;;;;;;;;9.70;1.00;;;;;;6097795;23;19905;-76
2022/11/21 05:23:59;;;;;;;;;;;9.80;1.00;;;;;;6097693;23;19908;-75
2022/11/21 05:26:24;;;;;;;;;;;9.70;1.00;;;;;;6097581;23;19901;-75
2022/11/21 05:28:50;;;;;;;;;;;9.70;1.00;;;;;;6097471;23;19953;-76
2022/11/21 05:31:15;;;;;;;;;;;9.70;1.00;;;;;;6095572;23;19920;-76
2022/11/21 05:33:41;;;;;;;;;;;9.70;1.00;;;;;;6097770;23;19934;-77
2022/11/21 05:36:06;;;;;;;;;;;9.60;1.00;;;;;;6097795;23;19908;-77
2022/11/21 05:38:32;;;;;;;;;;;9.60;1.00;;;;;;6097457;23;19940;-76
2022/11/21 05:40:57;;;;;;;;;;;9.60;41.30;;;;;;6095920;23;19901;-76
2022/11/21 05:46:07;;;;;;;;;;;9.50;99.90;;;;;;6097368;23;20299;-78
2022/11/21 05:48:35;;;;;;;;;;;9.60;99.90;;;;;;6097457;23;19932;-77
2022/11/21 05:51:01;;;;;;;;;;;9.60;99.90;;;;;;6097503;23;19902;-76
2022/11/21 05:53:26;;;;;;;;;;;9.60;1.00;;;;;;6097821;23;19901;-76
2022/11/21 05:55:52;;;;;;;;;;;9.70;1.00;;;;;;6097157;23;19902;-76
2022/11/21 05:58:18;;;;;;;;;;;9.70;1.00;;;;;;6097451;23;19905;-77
2022/11/21 06:00:43;;;;;;;;;;;9.80;1.00;;;;;;6097519;23;19912;-75
2022/11/21 06:03:27;;;;;;;;;;;9.80;1.00;;;;;;6097549;23;20213;-75
2022/11/21 06:06:06;;;;;;;;;;;9.80;1.00;;;;;;6097492;23;20006;-76
2022/11/21 06:08:33;;;;;;;;;;;9.90;1.00;;;;;;6097586;23;19924;-75
2022/11/21 06:10:59;;;;;;;;;;;9.90;1.00;;;;;;6097307;23;19929;-75
2022/11/21 06:13:25;;;;;;;;;;;9.90;1.00;;;;;;6097999;23;19905;-75
2022/11/21 06:15:57;;;;;;;;;;;10.00;1.00;;;;;;6097400;23;19953;-76
2022/11/21 06:18:23;;;;;;;;;;;10.00;1.00;;;;;;6097747;23;19913;-76
2022/11/21 06:20:49;;;;;;;;;;;10.10;1.00;;;;;;6097391;23;19984;-75
2022/11/21 06:23:14;;;;;;;;;;;10.10;1.00;;;;;;6097404;23;20376;-75
2022/11/21 06:25:41;;;;;;;;;;;10.10;1.00;;;;;;6097491;23;19901;-76
2022/11/21 06:28:06;;;;;;;;;;;10.10;1.00;;;;;;6097349;23;19952;-77
2022/11/21 06:30:32;;;;;;;;;;;10.10;1.00;;;;;;6097383;23;19902;-75
2022/11/21 06:32:58;;;;;;;;;;;10.10;1.00;;;;;;6096889;23;19944;-75
2022/11/21 06:35:23;;;;;;;;;;;10.20;1.00;;;;;;6097374;23;20221;-75
2022/11/21 06:37:49;;;;;;;;;;;10.20;1.00;;;;;;6097437;23;19928;-76
2022/11/21 06:40:14;;;;;;;;;;;10.20;1.00;;;;;;6095689;23;19984;-76
2022/11/21 06:42:40;;;;;;;;;;;10.20;1.00;;;;;;6097357;23;19953;-76
2022/11/21 06:45:06;;;;;;;;;;;10.10;1.00;;;;;;6098584;23;19901;-77
2022/11/21 06:47:35;;;;;;;;;;;10.20;12.90;;;;;;6099302;23;19902;-77
2022/11/21 06:50:00;;;;;;;;;;;10.20;1.00;;;;;;6097341;23;19988;-77
2022/11/21 06:52:26;;;;;;;;;;;10.20;23.20;;;;;;6098798;23;19933;-79
2022/11/21 06:54:51;;;;;;;;;;;10.30;52.00;;;;;;6098954;23;19984;-77
2022/11/21 06:57:17;;;;;;;;;;;10.30;6.20;;;;;;6098784;23;19905;-77
2022/11/21 06:59:43;;;;;;;;;;;10.30;23.20;;;;;;6098833;23;19928;-76
2022/11/21 07:02:11;;;;;;;;;;;10.30;24.80;;;;;;6098754;23;19905;-76
2022/11/21 07:04:37;;;;;;;;;;;10.30;33.90;;;;;;6098695;23;19917;-77
2022/11/21 07:07:02;;;;;;;;;;;10.30;7.70;;;;;;6097156;23;19901;-77
2022/11/21 07:09:28;;;;;;;;;;;10.30;1.00;;;;;;6098735;23;19901;-76
2022/11/21 07:11:53;;;;;;;;;;;10.40;1.00;;;;;;6098833;23;19928;-76
2022/11/21 07:14:19;;;;;;;;;;;10.30;1.00;;;;;;6099306;23;20240;-76
2022/11/21 07:16:44;;;;;;;;;;;10.30;1.00;;;;;;6098856;23;19908;-75
2022/11/21 07:19:10;;;;;;;;;;;10.30;1.00;;;;;;6097043;23;19901;-75
2022/11/21 07:21:36;;;;;;;;;;;10.30;1.00;;;;;;6098602;23;19901;-76
2022/11/21 07:24:02;;;;;;;;;;;10.30;1.00;;;;;;6098800;23;19901;-76
2022/11/21 07:26:27;;;;;;;;;;;10.40;1.00;;;;;;6098613;23;19901;-76
2022/11/21 07:28:53;;;;;;;;;;;10.40;1.00;;;;;;6098556;23;19905;-76
2022/11/21 07:31:18;;;;;;;;;;;10.40;1.00;;;;;;6098458;23;19988;-77
2022/11/21 07:33:45;;;;;;;;;;;10.40;1.00;;;;;;6098626;23;19898;-77
2022/11/21 07:36:11;;;;;;;;;;;10.40;99.90;;;;;;6098826;23;19901;-76
2022/11/21 07:38:36;;;;;;;;;;;10.40;99.90;;;;;;6098413;23;20276;-77
2022/11/21 07:41:02;;;;;;;;;;;10.40;99.90;;;;;;6098498;23;20260;-76
2022/11/21 07:43:28;;;;;;;;;;;10.40;99.90;;;;;;6098495;23;19905;-76
2022/11/21 07:45:53;;;;;;;;;;;10.40;99.90;;;;;;6098407;23;19912;-76
2022/11/21 07:48:19;;;;;;;;;;;10.50;99.90;;;;;;6098818;23;19909;-76
2022/11/21 07:50:44;;;;;;;;;;;10.40;99.90;;;;;;6098575;23;20236;-76
2022/11/21 07:53:10;;;;;;;;;;;10.40;99.90;;;;;;6098582;23;19905;-77
2022/11/21 07:55:36;;;;;;;;;;;10.40;99.90;;;;;;6098166;23;19901;-76
2022/11/21 07:58:05;;;;;;;;;;;10.40;99.90;;;;;;6098213;23;19960;-76
2022/11/21 08:00:32;;;;;;;;;;;10.40;99.90;;;;;;6098281;23;19926;-76
2022/11/21 08:02:57;;;;;;;;;;;10.40;99.90;;;;;;6098807;23;19901;-76
2022/11/21 08:05:23;;;;;;;;;;;10.40;99.90;;;;;;6098369;23;20369;-77
2022/11/21 08:07:49;;;;;;;;;;;10.40;99.90;;;;;;6098175;23;19901;-77
2022/11/21 08:10:15;;;;;;;;;;;10.40;99.90;;;;;;6098169;23;19901;-77
2022/11/21 08:12:41;;;;;;;;;;;10.30;99.90;;;;;;6098737;23;19901;-77
2022/11/21 08:15:07;;;;;;;;;;;10.30;99.90;;;;;;6098300;23;19928;-77
2022/11/21 08:17:33;;;;;;;;;;;10.30;1.00;;;;;;6096419;23;20248;-78
2022/11/21 08:19:59;;;;;;;;;;;10.30;1.00;;;;;;6098072;23;19901;-78
2022/11/21 08:22:25;;;;;;;;;;;10.20;1.00;;;;;;6098002;23;19901;-76
2022/11/21 08:24:52;;;;;;;;;;;10.20;1.00;;;;;;6098045;23;19944;-76
2022/11/21 08:27:20;;;;;;;;;;;10.30;1.00;;;;;;6098393;23;20380;-77
2022/11/21 08:29:45;;;;;;;;;;;10.30;1.00;;;;;;6097942;23;19972;-77
2022/11/21 08:32:11;;;;;;;;;;;10.30;1.00;;;;;;6097774;23;20323;-77
2022/11/21 08:34:37;;;;;;;;;;;10.30;1.00;;;;;;6097924;23;19929;-78
2022/11/21 08:37:02;;;;;;;;;;;10.30;1.00;;;;;;6098210;23;20280;-78
2022/11/21 08:39:29;;;;;;;;;;;10.30;1.00;;;;;;6098083;23;19902;-78
2022/11/21 08:42:01;;;;;;;;;;;10.30;1.00;;;;;;6097870;23;20024;-77
2022/11/21 08:44:27;;;;;;;;;;;10.30;1.00;;;;;;6098155;23;19901;-78
2022/11/21 08:46:54;;;;;;;;;;;10.30;1.00;;;;;;6097819;23;19905;-76
2022/11/21 08:49:19;;;;;;;;;;;10.30;1.00;;;;;;6097853;23;19956;-77
2022/11/21 08:51:48;;;;;;;;;;;10.30;1.00;;;;;;6097866;23;20324;-77
2022/11/21 08:54:14;;;;;;;;;;;10.40;1.00;;;;;;6097741;23;19905;-78
2022/11/21 08:56:40;;;;;;;;;;;10.50;1.00;;;;;;6097778;23;19901;-77
2022/11/21 08:59:06;;;;;;;;;;;10.50;1.00;;;;;;6097752;23;19905;-78
2022/11/21 09:01:32;;;;;;;;;;;10.50;1.00;;;;;;6097850;23;20236;-76
2022/11/21 09:03:57;;;;;;;;;;;10.40;1.00;;;;;;6097725;23;19905;-77
2022/11/21 09:06:23;;;;;;;;;;;10.40;1.00;;;;;;6097716;23;20339;-79
2022/11/21 09:08:48;;;;;;;;;;;10.30;1.00;;;;;;6097876;23;20240;-77
2022/11/21 09:11:14;;;;;;;;;;;10.30;1.00;;;;;;6120566;23;19940;-76
2022/11/21 09:13:39;;;;;;;;;;;10.40;1.00;;;;;;6098249;23;20284;-78
2022/11/21 09:18:52;;;;;;;;;;;10.40;1.00;;;;;;6097525;23;19952;-77
2022/11/21 09:21:18;;;;;;;;;;;10.40;1.00;;;;;;6098274;23;20227;-77
2022/11/21 09:23:44;;;;;;;;;;;10.50;1.00;;;;;;6097937;23;19909;-77
2022/11/21 09:26:10;;;;;;;;;;;10.50;1.00;;;;;;6097671;23;19901;-78
2022/11/21 09:28:36;;;;;;;;;;;10.50;1.00;;;;;;6097831;23;19901;-76
2022/11/21 09:31:02;;;;;;;;;;;10.50;1.00;;;;;;6097589;23;19904;-77
2022/11/21 09:33:28;;;;;;;;;;;10.40;1.00;;;;;;6097353;23;19905;-78
2022/11/21 09:35:53;;;;;;;;;;;10.40;1.00;;;;;;6097588;23;20217;-78
2022/11/21 09:38:19;;;;;;;;;;;10.40;1.00;;;;;;6097456;23;20324;-78
2022/11/21 09:40:46;;;;;;;;;;;10.40;1.00;;;;;;6097734;23;19902;-78
2022/11/21 09:43:30;;;;;;;;;;;10.30;1.00;;;;;;6097516;23;19901;-78
2022/11/21 09:46:01;;;;;;;;;;;10.40;15.20;;;;;;6097610;23;19901;-78
2022/11/21 09:48:31;;;;;;;;;;;10.40;6.60;;;;;;6095758;23;20252;-79
2022/11/21 09:50:59;;;;;;;;;;;10.40;26.70;;;;;;6097474;23;19901;-78
2022/11/21 09:53:29;;;;;;;;;;;10.40;55.80;;;;;;6097476;23;19901;-78
2022/11/21 09:55:56;;;;;;;;;;;10.40;90.50;;;;;;6097514;23;19901;-78
2022/11/21 09:58:34;;;;;;;;;;;10.50;83.30;;;;;;6097573;23;20232;-78
2022/11/21 10:01:00;;;;;;;;;;;10.50;63.30;;;;;;6097638;23;20325;-78
2022/11/21 10:03:29;;;;;;;;;;;10.50;80.70;;;;;;6097444;23;19908;-78
2022/11/21 10:06:10;;;;;;;;;;;10.50;98.90;;;;;;6097766;23;19924;-78
2022/11/21 10:08:59;;;;;;;;;;;10.50;99.90;;;;;;6097684;23;19901;-78
2022/11/21 10:14:34;;;;;;;;;;;10.50;99.90;;;;;;6097754;23;19924;-77
2022/11/21 10:17:18;;;;;;;;;;;10.70;99.90;;;;;;6097720;23;20372;-78
2022/11/21 10:19:52;;;;;;;;;;;10.90;99.90;;;;;;6097759;23;19912;-77
2022/11/21 10:22:41;;;;;;;;;;;11.10;99.90;;;;;;6099560;23;19908;-77
2022/11/21 10:25:16;;;;;;;;;;;11.50;99.90;;;;;;6099463;23;19968;-77
2022/11/21 10:27:42;;;;;;;;;;;12.10;99.90;;;;;;6099613;23;19929;-77
2022/11/21 10:30:18;;;;;;;;;;;12.40;91.40;;;;;;6098897;23;19905;-77
2022/11/21 10:32:49;;;;;;;;;;;12.60;1.00;;;;;;6099028;23;19996;-78
2022/11/21 10:35:16;;;;;;;;;;;12.80;1.00;;;;;;6099268;23;19940;-77
2022/11/21 10:38:01;;;;;;;;;;;13.10;99.90;;;;;;6098927;23;19913;-79
2022/11/21 10:40:40;;;;;;;;;;;13.30;99.90;;;;;;6099648;23;19901;-77
2022/11/21 10:46:13;;;;;;;;;;;13.60;1.00;;;;;;6078706;23;20036;-77
2022/11/21 10:48:38;;;;;;;;;;;13.40;1.00;;;;;;6099424;23;19978;-77
2022/11/21 10:51:13;;;;;;;;;;;13.30;99.90;;;;;;6098893;23;19902;-78
2022/11/21 10:56:25;;;;;;;;;;;14.20;99.90;;;;;;6098876;23;19965;-77
2022/11/21 10:58:54;;;;;;;;;;;14.20;99.90;;;;;;6098995;23;19979;-77
2022/11/21 11:01:26;;;;;;;;;;;14.30;99.90;;;;;;6098844;23;19925;-76
2022/11/21 11:04:10;;;;;;;;;;;14.50;99.90;;;;;;6098894;23;19901;-78
2022/11/21 11:06:40;;;;;;;;;;;15.00;99.90;;;;;;6099027;23;19952;-77
2022/11/21 11:09:06;;;;;;;;;;;14.50;99.90;;;;;;6099108;23;19905;-77
2022/11/21 11:11:32;;;;;;;;;;;14.20;99.90;;;;;;6098762;23;20367;-77
2022/11/21 11:14:02;;;;;;;;;;;13.90;99.90;;;;;;6099445;23;19901;-77
2022/11/21 11:16:29;;;;;;;;;;;13.60;99.90;;;;;;6098661;23;19988;-77
2022/11/21 11:19:00;;;;;;;;;;;13.40;99.90;;;;;;6099001;23;19905;-77
2022/11/21 11:21:41;;;;;;;;;;;13.20;99.90;;;;;;6098819;23;19908;-76
2022/11/21 11:24:09;;;;;;;;;;;12.90;99.90;;;;;;6098708;23;20358;-77
2022/11/21 11:26:47;;;;;;;;;;;12.80;99.90;;;;;;6098550;23;19905;-77
2022/11/21 11:29:14;;;;;;;;;;;13.00;99.90;;;;;;6098610;23;19929;-77
2022/11/21 11:31:44;;;;;;;;;;;13.00;99.90;;;;;;6096720;23;20248;-78
2022/11/21 11:34:16;;;;;;;;;;;13.30;99.90;;;;;;6098498;23;20309;-76
2022/11/21 11:36:44;;;;;;;;;;;13.50;99.90;;;;;;6098496;23;20312;-76
2022/11/21 11:39:15;;;;;;;;;;;13.70;99.90;;;;;;6098558;23;19986;-77
2022/11/21 11:47:58;;;;;;;;;;;19.60;16.50;;;;;;6070783;23;19909;-79
2022/11/21 11:50:28;;;;;;;;;;;20.80;1.00;;;;;;6098398;23;20320;-75
2022/11/21 11:52:53;;;;;;;;;;;21.30;1.00;;;;;;6098362;23;19984;-76
2022/11/21 11:55:22;;;;;;;;;;;21.40;1.00;;;;;;6098384;23;19905;-75
2022/11/21 11:57:49;;;;;;;;;;;21.30;1.00;;;;;;6096610;23;19984;-75
2022/11/21 12:00:23;;;;;;;;;;;21.00;1.00;;;;;;6098787;23;19928;-75
2022/11/21 12:03:18;;;;;;;;;;;19.90;1.00;;;;;;6098615;23;19905;-79
2022/11/21 12:05:52;;;;;;;;;;;20.70;1.00;;;;;;6084997;23;19956;-78
2022/11/21 12:08:48;;;;;;;;;;;19.10;1.00;;;;;;6096614;23;20316;-77
2022/11/21 12:14:03;;;;;;;;;;;18.90;1.00;;;;;;6098672;23;20259;-78
2022/11/21 12:16:29;;;;;;;;;;;18.20;1.00;;;;;;6098523;23;19907;-78
2022/11/21 12:19:09;;;;;;;;;;;17.40;1.00;;;;;;6098200;23;19992;-78
2022/11/21 12:21:35;;;;;;;;;;;16.20;1.00;;;;;;6098695;23;19905;-77
2022/11/21 12:24:03;;;;;;;;;;;15.60;7.10;;;;;;6098081;23;19901;-77
2022/11/21 12:26:44;;;;;;;;;;;15.40;1.00;;;;;;6098039;23;19909;-76
2022/11/21 12:29:21;;;;;;;;;;;16.00;1.00;;;;;;6098002;23;19981;-77
2022/11/21 12:31:53;;;;;;;;;;;18.30;1.00;;;;;;6097756;23;19913;-78
2022/11/21 12:34:37;;;;;;;;;;;20.60;1.00;;;;;;6098182;23;19953;-77
2022/11/21 12:37:21;;;;;;;;;;;22.40;1.00;;;;;;6097871;23;20312;-75
2022/11/21 12:40:04;;;;;;;;;;;22.80;1.00;;;;;;6097946;23;19901;-75
2022/11/21 12:42:48;;;;;;;;;;;22.70;1.00;;;;;;6097854;23;19905;-74
2022/11/21 12:45:27;;;;;;;;;;;21.10;1.00;;;;;;6098097;23;19905;-79
2022/11/21 12:54:29;;;;;;;;;;;20.00;1.00;;;;;;6097544;23;19951;-77
2022/11/21 12:56:58;;;;;;;;;;;18.20;1.00;;;;;;6098025;23;19901;-77
2022/11/21 12:59:24;;;;;;;;;;;15.90;1.00;;;;;;6097721;23;19948;-78
2022/11/21 13:01:52;;;;;;;;;;;14.90;1.00;;;;;;6097727;23;19908;-78
2022/11/21 13:04:34;;;;;;;;;;;14.40;1.00;;;;;;6096227;23;19901;-77
2022/11/21 13:07:01;;;;;;;;;;;14.10;1.00;;;;;;6097832;23;19901;-77
2022/11/21 13:09:29;;;;;;;;;;;14.20;1.00;;;;;;6097710;23;19968;-76
2022/11/21 13:12:12;;;;;;;;;;;14.00;1.00;;;;;;6097910;23;19924;-77
2022/11/21 13:14:38;;;;;;;;;;;13.60;1.00;;;;;;6095758;23;19909;-77
2022/11/21 13:17:19;;;;;;;;;;;13.40;1.00;;;;;;6097681;23;19909;-76
2022/11/21 13:19:50;;;;;;;;;;;13.50;1.00;;;;;;6097781;23;19901;-77
2022/11/21 13:22:34;;;;;;;;;;;14.80;1.00;;;;;;6096102;23;19907;-77
2022/11/21 13:25:00;;;;;;;;;;;18.00;1.00;;;;;;6097738;23;19908;-78
2022/11/21 13:27:27;;;;;;;;;;;19.90;1.00;;;;;;6097877;23;19908;-77
2022/11/21 13:30:05;;;;;;;;;;;20.40;1.00;;;;;;6097557;23;20339;-77
2022/11/21 13:32:37;;;;;;;;;;;20.30;1.00;;;;;;6097530;23;19913;-76
2022/11/21 13:35:22;;;;;;;;;;;20.70;1.00;;;;;;6097624;23;19909;-78
2022/11/21 13:37:48;;;;;;;;;;;21.40;1.00;;;;;;6097428;23;19911;-78
2022/11/21 13:40:25;;;;;;;;;;;21.20;1.00;;;;;;6098431;23;19980;-75
2022/11/21 13:43:10;;;;;;;;;;;21.70;1.00;;;;;;6097596;23;19983;-77
2022/11/21 13:45:47;;;;;;;;;;;22.10;1.00;;;;;;6097612;23;20042;-77
2022/11/21 13:48:33;;;;;;;;;;;21.20;1.00;;;;;;6098143;23;19981;-78
2022/11/21 13:51:17;;;;;;;;;;;21.20;1.00;;;;;;6095662;23;19901;-76
2022/11/21 13:53:46;;;;;;;;;;;21.30;1.00;;;;;;6097249;23;19905;-77
2022/11/21 13:56:11;;;;;;;;;;;21.60;1.00;;;;;;6097978;23;19901;-79
2022/11/21 13:58:55;;;;;;;;;;;21.70;1.00;;;;;;6099456;23;19933;-76
2022/11/21 14:01:28;;;;;;;;;;;21.60;1.00;;;;;;6099918;23;19932;-78
2022/11/21 14:04:08;;;;;;;;;;;20.90;1.00;;;;;;6099840;23;19988;-78
2022/11/21 14:06:42;;;;;;;;;;;20.00;1.00;;;;;;6099470;23;19936;-79
2022/11/21 14:09:25;;;;;;;;;;;17.20;1.00;;;;;;6100006;23;19901;-77
2022/11/21 14:11:53;;;;;;;;;;;16.40;1.00;;;;;;6099742;23;19901;-77
2022/11/21 14:14:23;;;;;;;;;;;15.60;1.00;;;;;;6099333;23;19972;-77
2022/11/21 14:16:51;;;;;;;;;;;15.00;1.00;;;;;;6099351;23;19901;-76
2022/11/21 14:19:18;;;;;;;;;;;14.10;1.00;;;;;;6099469;23;19905;-77
2022/11/21 14:21:44;;;;;;;;;;;13.30;14.00;;;;;;6099462;23;20346;-76
2022/11/21 14:24:13;;;;;;;;;;;12.80;21.50;;;;;;6098906;23;20236;-76
2022/11/21 14:26:41;;;;;;;;;;;11.70;60.80;;;;;;6099244;23;20237;-77
2022/11/21 14:29:25;;;;;;;;;;;11.60;79.90;;;;;;6099455;23;19905;-76
2022/11/21 14:31:50;;;;;;;;;;;11.80;84.70;;;;;;6099221;23;19940;-76
2022/11/21 14:34:22;;;;;;;;;;;12.10;93.60;;;;;;6099341;23;19902;-78
2022/11/21 14:36:48;;;;;;;;;;;12.20;71.70;;;;;;6099114;23;20248;-77
2022/11/21 14:39:14;;;;;;;;;;;11.90;28.60;;;;;;6099502;23;19992;-76
2022/11/21 14:41:41;;;;;;;;;;;11.30;61.60;;;;;;6099874;23;19908;-76
2022/11/21 14:44:07;;;;;;;;;;;10.80;99.90;;;;;;6099370;23;19929;-75
2022/11/21 14:46:34;;;;;;;;;;;11.10;99.90;;;;;;6099033;23;20321;-75
2022/11/21 14:49:09;;;;;;;;;;;11.40;99.90;;;;;;6099014;23;19901;-75
2022/11/21 14:51:34;;;;;;;;;;;11.50;99.90;;;;;;6099106;23;19905;-76
2022/11/21 14:54:01;;;;;;;;;;;11.60;93.50;;;;;;6099064;23;19984;-77
2022/11/21 14:56:30;;;;;;;;;;;11.90;72.10;;;;;;6099055;23;20316;-77
2022/11/21 14:58:58;;;;;;;;;;;12.00;54.20;;;;;;6097371;23;19957;-76
2022/11/21 15:01:24;;;;;;;;;;;12.20;38.50;;;;;;6098925;23;20338;-76
2022/11/21 15:03:58;;;;;;;;;;;11.90;48.50;;;;;;6098693;23;19980;-77
2022/11/21 15:06:25;;;;;;;;;;;11.80;51.60;;;;;;6098663;23;19901;-77
2022/11/21 15:08:51;;;;;;;;;;;11.60;56.80;;;;;;6098827;23;19901;-76
2022/11/21 15:11:16;;;;;;;;;;;13.90;34.50;;;;;;6098825;23;20240;-77
2022/11/21 15:13:48;;;;;;;;;;;16.30;13.00;;;;;;6098804;23;19901;-77